createdAt,value
2016-06-02T16:29:59.075Z,80
2016-06-02T16:30:59.125Z,84
2016-06-02T16:31:59.142Z,80
2016-06-02T16:32:59.208Z,76
2016-06-02T16:33:59.226Z,76
2016-06-02T16:34:59.261Z,76
2016-06-02T16:35:59.310Z,68
2016-06-02T16:36:59.359Z,68
2016-06-02T16:37:59.362Z,72
2016-06-02T16:38:59.411Z,64
2016-06-02T16:40:03.180Z,60
2016-06-02T16:41:00.152Z,64
2016-06-02T16:41:59.513Z,72
2016-06-02T16:42:59.250Z,72
2016-06-02T16:43:59.597Z,68
2016-06-02T16:44:59.631Z,68
2016-06-02T16:45:59.680Z,68
2016-06-02T16:46:59.698Z,60
2016-06-02T16:47:59.749Z,68
2016-06-02T16:48:59.782Z,60
2016-06-02T16:49:59.723Z,68
2016-06-02T16:50:59.834Z,56
2016-06-02T16:51:59.884Z,68
2016-06-02T16:52:59.902Z,72
2016-06-02T16:53:59.811Z,68
2016-06-02T16:55:00.721Z,76
2016-06-02T16:56:00.582Z,88
2016-06-02T16:57:00.070Z,100
2016-06-02T16:58:00.088Z,96
2016-06-02T16:59:00.153Z,80
2016-06-02T17:00:00.061Z,72
2016-06-02T17:01:00.206Z,60
2016-06-02T17:02:00.926Z,56
2016-06-02T17:03:00.350Z,60
2016-06-02T17:04:00.323Z,64
2016-06-02T17:05:00.388Z,64
2016-06-02T17:06:00.391Z,72
2016-06-02T17:07:00.440Z,56
2016-06-02T17:08:00.458Z,48
2016-06-02T17:09:00.508Z,56
2016-06-02T17:10:00.777Z,64
2016-06-02T17:11:01.154Z,64
2016-06-02T17:12:00.625Z,60
2016-06-02T17:13:00.660Z,80
2016-06-02T17:14:00.693Z,80
2016-06-02T17:15:00.727Z,60
2016-06-02T17:16:00.777Z,36
2016-06-02T17:17:00.810Z,28
2016-06-02T17:18:00.844Z,24
2016-06-02T17:19:00.910Z,32
2016-06-02T17:20:00.928Z,36
2016-06-02T17:21:00.978Z,40
2016-06-02T17:22:00.996Z,44
2016-06-02T17:23:01.029Z,44
2016-06-02T17:24:01.064Z,44
2016-06-02T17:25:02.051Z,48
2016-06-02T17:26:01.866Z,56
2016-06-02T17:27:01.197Z,56
2016-06-02T17:28:01.231Z,52
2016-06-02T17:29:01.249Z,52
2016-06-02T17:30:01.284Z,52
2016-06-02T17:31:01.333Z,48
2016-06-02T17:32:01.367Z,48
2016-06-02T17:33:01.401Z,48
2016-06-02T17:34:01.435Z,48
2016-06-02T17:35:01.469Z,44
2016-06-02T17:36:01.518Z,44
2016-06-02T17:37:01.552Z,44
2016-06-02T17:38:01.586Z,40
2016-06-02T17:39:01.480Z,40
2016-06-02T17:40:02.076Z,44
2016-06-02T17:41:01.703Z,44
2016-06-02T17:42:01.738Z,44
2016-06-02T17:43:01.772Z,44
2016-06-02T17:44:01.821Z,40
2016-06-02T17:45:03.121Z,44
2016-06-02T17:46:01.874Z,40
2016-06-02T17:47:01.751Z,40
2016-06-02T17:48:01.800Z,36
2016-06-02T17:49:01.990Z,40
2016-06-02T17:50:02.025Z,44
2016-06-02T17:51:02.043Z,44
2016-06-02T17:52:02.107Z,36
2016-06-02T17:53:02.143Z,40
2016-06-02T17:54:02.176Z,40
2016-06-02T17:55:02.898Z,40
2016-06-02T17:56:02.290Z,44
2016-06-02T17:57:02.293Z,44
2016-06-02T17:58:02.327Z,44
2016-06-02T17:59:02.376Z,48
2016-06-02T18:00:02.442Z,48
2016-06-02T18:01:02.289Z,44
2016-06-02T18:02:02.479Z,44
2016-06-02T18:03:02.512Z,44
2016-06-02T18:04:02.547Z,40
2016-06-02T18:05:02.580Z,40
2016-06-02T18:06:02.614Z,40
2016-06-02T18:07:02.664Z,40
2016-06-02T18:08:02.698Z,40
2016-06-02T18:09:02.732Z,40
2016-06-02T18:10:02.766Z,40
2016-06-02T18:11:02.816Z,40
2016-06-02T18:12:02.849Z,40
2016-06-02T18:13:02.883Z,40
2016-06-02T18:14:02.917Z,48
2016-06-02T18:15:02.951Z,48
2016-06-02T18:16:02.986Z,48
2016-06-02T18:17:03.035Z,48
2016-06-02T18:18:02.912Z,52
2016-06-02T18:19:03.102Z,56
2016-06-02T18:20:03.136Z,40
2016-06-02T18:21:03.171Z,44
2016-06-02T18:22:03.204Z,40
2016-06-02T18:23:03.238Z,40
2016-06-02T18:24:03.288Z,44
2016-06-02T18:25:03.696Z,44
2016-06-02T18:26:03.388Z,44
2016-06-02T18:27:03.389Z,40
2016-06-02T18:28:03.423Z,40
2016-06-02T18:29:03.473Z,40
2016-06-02T18:30:03.507Z,32
2016-06-02T18:31:03.369Z,44
2016-06-02T18:32:03.576Z,44
2016-06-02T18:33:03.609Z,52
2016-06-02T18:34:03.642Z,52
2016-06-02T18:35:03.692Z,48
2016-06-02T18:36:03.820Z,44
2016-06-02T18:37:03.932Z,40
2016-06-02T18:38:03.778Z,36
2016-06-02T18:39:03.829Z,36
2016-06-02T18:40:03.971Z,36
2016-06-02T18:41:04.442Z,36
2016-06-02T18:42:03.789Z,36
2016-06-02T18:43:03.995Z,36
2016-06-02T18:44:03.998Z,36
2016-06-02T18:45:03.908Z,36
2016-06-02T18:46:04.066Z,32
2016-06-02T18:47:04.194Z,32
2016-06-02T18:48:04.150Z,32
2016-06-02T18:49:04.183Z,32
2016-06-02T18:50:04.233Z,28
2016-06-02T18:51:04.267Z,28
2016-06-02T18:52:04.301Z,28
2016-06-02T18:53:04.334Z,28
2016-06-02T18:54:04.353Z,24
2016-06-02T18:55:04.559Z,24
2016-06-02T18:56:05.062Z,28
2016-06-02T18:57:04.486Z,24
2016-06-02T18:58:04.520Z,24
2016-06-02T18:59:04.570Z,28
2016-06-02T19:00:04.619Z,28
2016-06-02T19:01:04.638Z,28
2016-06-02T19:02:04.671Z,28
2016-06-02T19:03:04.706Z,24
2016-06-02T19:04:04.754Z,28
2016-06-02T19:05:04.601Z,24
2016-06-02T19:06:04.823Z,24
2016-06-02T19:07:04.872Z,28
2016-06-02T19:08:04.907Z,24
2016-06-02T19:09:04.909Z,24
2016-06-02T19:10:05.678Z,24
2016-06-02T19:11:05.477Z,24
2016-06-02T19:12:05.042Z,24
2016-06-02T19:13:05.076Z,24
2016-06-02T19:14:05.126Z,24
2016-06-02T19:15:05.144Z,24
2016-06-02T19:16:05.178Z,24
2016-06-02T19:17:05.197Z,24
2016-06-02T19:18:05.246Z,24
2016-06-02T19:19:05.280Z,24
2016-06-02T19:20:05.173Z,24
2016-06-02T19:21:05.364Z,20
2016-06-02T19:22:05.475Z,20
2016-06-02T19:23:05.431Z,20
2016-06-02T19:24:05.824Z,20
2016-06-02T19:25:05.546Z,20
2016-06-02T19:26:05.486Z,20
2016-06-02T19:27:05.582Z,20
2016-06-02T19:28:05.616Z,20
2016-06-02T19:29:05.682Z,20
2016-06-02T19:30:06.043Z,20
2016-06-02T19:31:06.421Z,20
2016-06-02T19:32:05.752Z,16
2016-06-02T19:33:05.801Z,20
2016-06-02T19:34:05.820Z,20
2016-06-02T19:35:05.869Z,16
2016-06-02T19:36:06.888Z,20
2016-06-02T19:37:06.406Z,16
2016-06-02T19:38:05.971Z,20
2016-06-02T19:39:06.021Z,16
2016-06-02T19:40:06.398Z,20
2016-06-02T19:41:05.964Z,16
2016-06-02T19:42:05.982Z,16
2016-06-02T19:43:06.172Z,12
2016-06-02T19:44:06.222Z,16
2016-06-02T19:45:06.240Z,16
2016-06-02T19:46:06.289Z,16
2016-06-02T19:47:06.308Z,16
2016-06-02T19:48:06.358Z,12
2016-06-02T19:57:59.056Z,16
2016-06-02T19:58:58.215Z,16
2016-06-02T19:59:58.405Z,16
2016-06-02T20:01:00.143Z,16
2016-06-02T20:01:58.426Z,12
2016-06-02T20:02:58.398Z,12
2016-06-02T20:03:58.401Z,12
2016-06-02T20:04:58.465Z,4
